Aviation Digital Data Service (ADDS)

Output produced by METARs form (2046 UTC 08 August 2020)
found at http://www.aviationweather.gov/metar/data/
 
KILE 081956Z AUTO 15007G14KT 10SM 36/19 A3007 RMK AO2 SLP165 T03610194 $
KILE 081856Z AUTO 20009G19KT 10SM 36/20 A3008 RMK AO2 SLP172 T03610200 $
KILE 081756Z AUTO 19007G15KT 10SM 34/20 A3010 RMK AO2 SLP177 T03390200 10339 20239 58007 $
KILE 081656Z AUTO 15012KT 10SM 33/21 A3012 RMK AO2 SLP183 T03280206 $
KILE 081556Z AUTO 16010G16KT 10SM 31/21 A3012 RMK AO2 SLP185 T03110211 $
KILE 081456Z AUTO 19012KT 10SM 29/22 A3012 RMK AO2 SLP185 T02940222 51009 $
KILE 081356Z AUTO 21009KT 10SM 27/23 A3012 RMK AO2 SLP185 T02720228 $
KILE 081256Z AUTO 18005KT 10SM 25/22 A3011 RMK AO2 SLP181 T02500222 $
KILE 081156Z AUTO 17004KT 10SM 24/22 A3010 RMK AO2 SLP178 T02390217 10283 20233 53008 $
KILE 081056Z AUTO 19005KT 10SM 24/22 A3008 RMK AO2 SLP170 T02390217 $
KILE 080956Z AUTO 19006KT 10SM 24/22 A3007 RMK AO2 SLP167 T02440217 $
KILE 080856Z AUTO 18006KT 10SM 26/22 A3007 RMK AO2 SLP168 T02560217 51002 $
KILE 080756Z AUTO 19007KT 10SM 26/22 A3007 RMK AO2 SLP167 T02610222 $
KILE 080656Z AUTO 17006KT 10SM 28/22 A3007 RMK AO2 SLP166 T02780217 $
KILE 080556Z AUTO 18009KT 10SM 28/21 A3007 RMK AO2 SLP165 T02830211 10350 20283 403720239 51015 $
KILE 080456Z AUTO 16010KT 10SM 29/21 A3005 RMK AO2 SLP160 T02940211 $
KILE 080356Z AUTO 16009KT 10SM 30/19 A3004 RMK AO2 SLP158 T03000189 $
KILE 080256Z AUTO 14009KT 10SM 32/19 A3002 RMK AO2 SLP150 T03170189 53013 $
KILE 080156Z AUTO 14011G17KT 10SM 33/19 A3001 RMK AO2 SLP146 T03280189 TSNO $